createdAt,value
2019-02-19T00:00:26.803Z,52.12
2019-02-19T00:01:36.202Z,52.24
2019-02-19T00:02:44.539Z,52.28
2019-02-19T00:03:53.316Z,52.40
2019-02-19T00:05:01.417Z,52.40
2019-02-19T00:06:09.813Z,52.48
2019-02-19T00:07:18.192Z,52.53
2019-02-19T00:08:26.574Z,52.55
2019-02-19T00:09:34.964Z,52.54
2019-02-19T00:10:44.456Z,52.49
2019-02-19T00:11:53.082Z,52.44
2019-02-19T00:13:01.634Z,52.48
2019-02-19T00:14:09.929Z,52.59
2019-02-19T00:15:18.106Z,52.57
2019-02-19T00:16:31.322Z,52.56
2019-02-19T00:17:40.100Z,52.63
2019-02-19T00:18:49.149Z,52.65
2019-02-19T00:19:57.636Z,52.67
2019-02-19T00:21:05.834Z,52.74
2019-02-19T00:22:14.237Z,52.77
2019-02-19T00:23:22.694Z,52.91
2019-02-19T00:24:30.679Z,52.88
2019-02-19T00:25:39.066Z,52.92
2019-02-19T00:26:47.724Z,52.96
2019-02-19T00:27:55.928Z,52.96
2019-02-19T00:29:04.657Z,52.96
2019-02-19T00:30:13.273Z,52.92
2019-02-19T00:31:21.914Z,52.96
2019-02-19T00:32:30.707Z,53.06
2019-02-19T00:33:39.291Z,53.11
2019-02-19T00:34:47.534Z,53.18
2019-02-19T00:35:56.118Z,53.24
2019-02-19T00:37:04.241Z,53.42
2019-02-19T00:38:12.545Z,53.53
2019-02-19T00:39:20.673Z,53.52
2019-02-19T00:40:29.330Z,53.61
2019-02-19T00:41:37.787Z,53.65
2019-02-19T00:42:46.842Z,53.65
2019-02-19T00:43:55.576Z,53.64
2019-02-19T00:45:05.196Z,53.68
2019-02-19T00:46:13.598Z,53.78
2019-02-19T00:47:21.836Z,53.87
2019-02-19T00:48:30.135Z,53.90
2019-02-19T00:49:38.388Z,53.94
2019-02-19T00:50:48.621Z,53.98
2019-02-19T00:51:57.331Z,54.06
2019-02-19T00:53:06.153Z,54.12
2019-02-19T00:54:14.531Z,54.17
2019-02-19T00:55:23.034Z,54.26
2019-02-19T00:56:31.291Z,54.31
2019-02-19T00:57:39.871Z,54.26
2019-02-19T00:58:48.126Z,54.29
2019-02-19T00:59:56.392Z,54.31
2019-02-19T01:01:05.075Z,54.38
2019-02-19T01:02:13.506Z,54.43
2019-02-19T01:03:23.389Z,54.48
2019-02-19T01:04:31.788Z,54.56
2019-02-19T01:05:40.279Z,54.57
2019-02-19T01:06:48.969Z,54.63
2019-02-19T01:07:58.078Z,54.72
2019-02-19T01:09:09.425Z,54.71
2019-02-19T01:10:17.819Z,54.81
2019-02-19T01:11:26.507Z,54.83
2019-02-19T01:12:35.077Z,54.88
2019-02-19T01:13:43.626Z,55.01
2019-02-19T01:14:52.436Z,55.08
2019-02-19T01:16:00.671Z,55.15
2019-02-19T01:17:08.932Z,55.26
2019-02-19T01:18:17.485Z,55.37
2019-02-19T01:19:25.710Z,55.43
2019-02-19T01:20:33.925Z,55.52
2019-02-19T01:21:44.460Z,55.59
2019-02-19T01:22:52.691Z,55.63
2019-02-19T01:24:01.371Z,55.66
2019-02-19T01:25:10.249Z,55.70
2019-02-19T01:26:19.487Z,55.80
2019-02-19T01:27:27.945Z,55.89
2019-02-19T01:28:36.441Z,55.94
2019-02-19T01:29:44.641Z,56.04
2019-02-19T01:30:53.611Z,56.08
2019-02-19T01:32:02.238Z,56.08
2019-02-19T01:33:10.866Z,56.15
2019-02-19T01:34:19.412Z,56.20
2019-02-19T01:35:28.513Z,56.26
2019-02-19T01:36:36.882Z,56.25
2019-02-19T01:37:45.840Z,56.23
2019-02-19T01:38:54.620Z,56.26
2019-02-19T01:40:02.731Z,56.35
2019-02-19T01:41:11.170Z,56.42
2019-02-19T01:42:19.598Z,56.44
2019-02-19T01:43:28.181Z,56.47
2019-02-19T01:44:36.337Z,56.45
2019-02-19T01:45:45.187Z,56.43
2019-02-19T01:46:53.520Z,56.56
2019-02-19T01:48:02.256Z,56.63
2019-02-19T01:49:10.979Z,56.72
2019-02-19T01:50:19.988Z,56.78
2019-02-19T01:51:28.316Z,57.02
2019-02-19T01:52:37.492Z,57.11
2019-02-19T01:53:45.538Z,57.30
2019-02-19T01:54:53.940Z,57.45
2019-02-19T01:56:02.260Z,57.56
2019-02-19T01:57:10.736Z,57.60
2019-02-19T01:58:18.945Z,57.68
2019-02-19T01:59:27.791Z,57.74
2019-02-19T02:00:36.552Z,57.79
2019-02-19T02:01:44.840Z,57.96
2019-02-19T02:02:53.164Z,57.99
2019-02-19T02:04:01.634Z,58.03
2019-02-19T02:05:10.980Z,57.99
2019-02-19T02:06:19.878Z,57.94
2019-02-19T02:07:28.482Z,57.99
2019-02-19T02:08:37.533Z,58.06
2019-02-19T02:09:46.047Z,58.16
2019-02-19T02:10:55.510Z,58.20
2019-02-19T02:12:04.726Z,58.29
2019-02-19T02:13:13.171Z,58.35
2019-02-19T02:14:21.913Z,58.34
2019-02-19T02:15:30.513Z,58.44
2019-02-19T02:16:39.975Z,58.51
2019-02-19T02:17:48.343Z,58.53
2019-02-19T02:18:56.951Z,58.56
2019-02-19T02:20:06.377Z,58.60
2019-02-19T02:21:14.579Z,58.62
2019-02-19T02:22:22.906Z,58.65
2019-02-19T02:23:30.998Z,58.63
2019-02-19T02:24:39.870Z,58.63
2019-02-19T02:25:48.638Z,58.73
2019-02-19T02:26:57.397Z,58.71
2019-02-19T02:28:05.730Z,58.69
2019-02-19T02:29:14.049Z,58.70
2019-02-19T02:30:22.122Z,58.77
2019-02-19T02:31:30.833Z,58.81
2019-02-19T02:32:39.463Z,58.84
2019-02-19T02:33:48.021Z,58.89
2019-02-19T02:34:56.463Z,58.95
2019-02-19T02:36:04.688Z,58.92
2019-02-19T02:37:13.476Z,58.96
2019-02-19T02:38:22.078Z,58.97
2019-02-19T02:39:30.594Z,58.96
2019-02-19T02:40:39.665Z,58.97
2019-02-19T02:41:48.314Z,58.97
2019-02-19T02:42:56.948Z,59.08
2019-02-19T02:44:05.818Z,59.13
2019-02-19T02:45:14.630Z,59.25
2019-02-19T02:46:23.059Z,59.29
2019-02-19T02:47:31.624Z,59.54
2019-02-19T02:48:39.997Z,59.72
2019-02-19T02:49:48.683Z,59.84
2019-02-19T02:50:57.907Z,59.93
2019-02-19T02:52:06.455Z,60.04
2019-02-19T02:53:14.923Z,60.32
2019-02-19T02:54:23.151Z,60.42
2019-02-19T02:55:31.478Z,60.49
2019-02-19T02:56:40.338Z,60.53
2019-02-19T02:57:48.632Z,60.54
2019-02-19T02:58:56.976Z,60.62
2019-02-19T03:00:07.596Z,60.67
2019-02-19T03:01:15.640Z,60.73
2019-02-19T03:02:24.291Z,60.71
2019-02-19T03:03:32.607Z,60.72
2019-02-19T03:04:41.212Z,60.76
2019-02-19T03:06:01.978Z,60.78
2019-02-19T03:07:14.803Z,60.80
2019-02-19T03:08:23.617Z,60.75
2019-02-19T03:09:32.458Z,60.71
2019-02-19T03:10:40.985Z,60.70
2019-02-19T03:11:49.561Z,60.78
2019-02-19T03:12:57.749Z,60.85
2019-02-19T03:14:06.146Z,60.83
2019-02-19T03:15:15.408Z,60.78
2019-02-19T03:16:24.549Z,61.00
2019-02-19T03:17:33.321Z,61.01
2019-02-19T03:18:41.864Z,60.99
2019-02-19T03:19:50.204Z,61.14
2019-02-19T03:20:58.619Z,61.21
2019-02-19T03:22:07.098Z,61.29
2019-02-19T03:23:16.177Z,61.31
2019-02-19T03:24:24.651Z,61.36
2019-02-19T03:25:33.211Z,61.43
2019-02-19T03:26:41.490Z,61.36
2019-02-19T03:27:49.920Z,61.47
2019-02-19T03:28:58.474Z,61.37
2019-02-19T03:30:10.470Z,61.45
2019-02-19T03:31:18.704Z,61.33
2019-02-19T03:32:26.845Z,61.29
2019-02-19T03:33:38.361Z,61.22
2019-02-19T03:34:46.972Z,61.17
2019-02-19T03:35:55.310Z,61.19
2019-02-19T03:37:04.280Z,61.16
2019-02-19T03:38:12.840Z,61.10
2019-02-19T03:39:22.183Z,61.13
2019-02-19T03:40:30.496Z,61.21
2019-02-19T03:41:39.576Z,61.22
2019-02-19T03:42:48.252Z,61.20
2019-02-19T03:43:56.701Z,61.21
2019-02-19T03:45:06.463Z,61.19
2019-02-19T03:46:14.647Z,61.17
2019-02-19T03:47:22.948Z,61.18
2019-02-19T03:48:31.178Z,61.21
2019-02-19T03:49:39.300Z,61.29
2019-02-19T03:50:48.096Z,61.30
2019-02-19T03:51:56.824Z,61.33
2019-02-19T03:53:05.333Z,61.38
2019-02-19T03:54:13.816Z,61.41
2019-02-19T03:55:24.540Z,61.43
2019-02-19T03:56:33.077Z,61.47
2019-02-19T03:57:42.257Z,61.45
2019-02-19T03:58:51.344Z,61.45
2019-02-19T04:00:00.327Z,61.39
2019-02-19T04:01:08.807Z,61.36
2019-02-19T04:02:17.565Z,61.36
2019-02-19T04:03:26.192Z,61.35
2019-02-19T04:04:34.568Z,61.37
2019-02-19T04:05:43.101Z,61.38
2019-02-19T04:06:51.587Z,61.36
2019-02-19T04:08:00.258Z,61.39
2019-02-19T04:09:09.039Z,61.44
2019-02-19T04:10:17.770Z,61.44
2019-02-19T04:11:25.706Z,61.52
2019-02-19T04:12:33.790Z,61.56
2019-02-19T04:13:42.027Z,61.57
2019-02-19T04:14:50.679Z,61.57
2019-02-19T04:15:59.029Z,61.60
2019-02-19T04:17:07.407Z,61.62
2019-02-19T04:18:16.112Z,61.65
2019-02-19T04:19:24.365Z,61.66
2019-02-19T04:20:32.724Z,61.68
2019-02-19T04:21:41.270Z,61.65
2019-02-19T04:22:49.708Z,61.72
2019-02-19T04:23:58.014Z,61.77
2019-02-19T04:25:07.029Z,61.74
2019-02-19T04:26:15.593Z,61.75
2019-02-19T04:27:23.762Z,61.85
2019-02-19T04:28:31.976Z,61.83
2019-02-19T04:29:40.472Z,61.88
2019-02-19T04:30:49.294Z,61.79
2019-02-19T04:31:57.849Z,61.77
2019-02-19T04:33:05.831Z,61.75
2019-02-19T04:34:14.345Z,61.76
2019-02-19T04:35:22.477Z,61.75
2019-02-19T04:36:30.733Z,61.72
2019-02-19T04:37:39.578Z,61.77
2019-02-19T04:38:49.261Z,61.81
2019-02-19T04:39:57.909Z,61.84
2019-02-19T04:41:06.168Z,61.86
2019-02-19T04:42:14.560Z,61.87
2019-02-19T04:43:23.084Z,61.81
2019-02-19T04:44:31.648Z,61.81
2019-02-19T04:45:40.297Z,61.85
2019-02-19T04:46:49.071Z,61.83
2019-02-19T04:47:57.309Z,61.79
2019-02-19T04:49:06.036Z,61.76
2019-02-19T04:50:14.591Z,61.77
2019-02-19T04:51:23.141Z,61.71
2019-02-19T04:52:31.843Z,61.69
2019-02-19T04:53:40.635Z,61.71
2019-02-19T04:54:49.390Z,61.74
2019-02-19T04:55:57.794Z,61.80
2019-02-19T04:57:06.512Z,61.84
2019-02-19T04:58:15.760Z,61.81
2019-02-19T04:59:24.980Z,61.79
2019-02-19T05:00:33.427Z,61.81
2019-02-19T05:01:42.173Z,61.78
2019-02-19T05:02:51.583Z,61.80
2019-02-19T05:04:00.036Z,61.80
2019-02-19T05:05:26.377Z,61.80
2019-02-19T05:06:35.211Z,61.80
2019-02-19T05:07:43.969Z,61.78
2019-02-19T05:08:52.461Z,61.78
2019-02-19T05:10:00.931Z,61.80
2019-02-19T05:11:08.949Z,61.83
2019-02-19T05:12:17.600Z,61.86
2019-02-19T05:13:25.896Z,61.92
2019-02-19T05:14:34.710Z,61.99
2019-02-19T05:15:43.738Z,62.02
2019-02-19T05:16:52.998Z,62.10
2019-02-19T05:18:00.919Z,62.12
2019-02-19T05:19:08.948Z,62.21
2019-02-19T05:20:17.339Z,62.27
2019-02-19T05:21:26.147Z,62.31
2019-02-19T05:22:34.955Z,62.35
2019-02-19T05:23:43.657Z,62.47
2019-02-19T05:24:52.303Z,62.52
2019-02-19T05:26:00.963Z,62.61
2019-02-19T05:27:09.271Z,62.62
2019-02-19T05:28:17.411Z,62.66
2019-02-19T05:29:25.976Z,62.64
2019-02-19T05:30:34.351Z,62.63
2019-02-19T05:31:42.468Z,62.62
2019-02-19T05:32:51.384Z,62.58
2019-02-19T05:33:59.765Z,62.54
2019-02-19T05:35:09.682Z,62.51
2019-02-19T05:36:20.735Z,62.50
2019-02-19T05:37:29.904Z,62.48
2019-02-19T05:38:38.365Z,62.61
2019-02-19T05:39:47.131Z,62.58
2019-02-19T05:40:55.517Z,62.57
2019-02-19T05:42:04.023Z,62.62
2019-02-19T05:43:11.964Z,62.62
2019-02-19T05:44:20.364Z,62.69
2019-02-19T05:45:28.926Z,62.88
2019-02-19T05:46:37.336Z,62.83
2019-02-19T05:47:45.641Z,62.77
2019-02-19T05:48:54.344Z,62.89
2019-02-19T05:50:02.899Z,62.88
2019-02-19T05:51:11.199Z,62.89
2019-02-19T05:52:20.124Z,62.91
2019-02-19T05:53:28.376Z,63.02
2019-02-19T05:54:36.443Z,63.01
2019-02-19T05:55:44.877Z,62.95
2019-02-19T05:56:53.736Z,62.96
2019-02-19T05:58:02.015Z,62.98
2019-02-19T05:59:10.503Z,62.99
2019-02-19T06:00:18.891Z,63.00
2019-02-19T06:01:28.537Z,62.99
2019-02-19T06:02:37.120Z,62.95
2019-02-19T06:03:45.792Z,62.88
2019-02-19T06:04:54.338Z,62.80
2019-02-19T06:06:02.788Z,62.71
2019-02-19T06:07:11.636Z,62.63
2019-02-19T06:08:22.854Z,62.50
2019-02-19T06:09:31.389Z,62.42
2019-02-19T06:10:41.488Z,62.34
2019-02-19T06:11:49.927Z,62.29
2019-02-19T06:12:58.300Z,62.33
2019-02-19T06:14:06.731Z,62.21
2019-02-19T06:15:15.290Z,62.14
2019-02-19T06:16:24.923Z,62.05
2019-02-19T06:17:33.392Z,61.90
2019-02-19T06:18:42.811Z,61.80
2019-02-19T06:19:51.643Z,61.75
2019-02-19T06:20:59.890Z,61.64
2019-02-19T06:22:08.448Z,61.52
2019-02-19T06:23:16.850Z,61.36
2019-02-19T06:24:25.575Z,61.21
2019-02-19T06:25:33.905Z,61.00
2019-02-19T06:26:42.610Z,60.79
2019-02-19T06:27:52.165Z,60.54
2019-02-19T06:29:01.058Z,60.27
2019-02-19T06:30:13.765Z,59.94
2019-02-19T06:31:22.277Z,59.62
2019-02-19T06:32:30.673Z,59.29
2019-02-19T06:33:39.590Z,58.97
2019-02-19T06:34:48.364Z,58.68
2019-02-19T06:35:57.046Z,58.42
2019-02-19T06:37:05.481Z,58.23
2019-02-19T06:38:14.512Z,58.07
2019-02-19T06:39:23.354Z,57.95
2019-02-19T06:40:31.850Z,57.87
2019-02-19T06:41:41.214Z,57.79
2019-02-19T06:42:50.198Z,57.76
2019-02-19T06:43:59.623Z,57.75
2019-02-19T06:45:09.475Z,57.71
2019-02-19T06:46:18.619Z,57.67
2019-02-19T06:47:27.603Z,57.62
2019-02-19T06:48:36.685Z,57.56
2019-02-19T06:49:45.125Z,57.47
2019-02-19T06:50:53.504Z,57.35
2019-02-19T06:52:02.256Z,57.21
2019-02-19T06:53:11.499Z,57.12
2019-02-19T06:54:20.553Z,57.00
2019-02-19T06:55:28.979Z,56.94
2019-02-19T06:56:37.900Z,56.82
2019-02-19T06:57:46.718Z,56.66
2019-02-19T06:58:55.132Z,56.53
2019-02-19T07:00:04.450Z,56.38
2019-02-19T07:01:13.254Z,56.24
2019-02-19T07:02:28.770Z,56.10
2019-02-19T07:03:39.284Z,55.91
2019-02-19T07:04:48.851Z,55.80
2019-02-19T07:05:57.325Z,55.64
2019-02-19T07:07:06.371Z,55.45
2019-02-19T07:08:15.538Z,55.27
2019-02-19T07:09:24.398Z,55.06
2019-02-19T07:10:33.282Z,54.86
2019-02-19T07:11:42.256Z,54.64
2019-02-19T07:12:53.156Z,54.43
2019-02-19T07:14:01.992Z,54.16
2019-02-19T07:15:11.632Z,53.92
2019-02-19T07:16:21.219Z,53.73
2019-02-19T07:17:30.271Z,53.58
2019-02-19T07:18:39.459Z,53.36
2019-02-19T07:19:48.303Z,53.15
2019-02-19T07:20:57.103Z,52.75
2019-02-19T07:22:06.309Z,52.68
2019-02-19T07:23:15.460Z,52.46
2019-02-19T07:24:24.125Z,52.33
2019-02-19T07:25:32.855Z,52.19
2019-02-19T07:26:41.183Z,52.21
2019-02-19T07:27:50.432Z,52.17
2019-02-19T07:29:00.028Z,52.03
2019-02-19T07:30:11.622Z,51.82
2019-02-19T07:31:20.662Z,51.67
2019-02-19T07:32:29.903Z,51.40
2019-02-19T07:33:38.918Z,51.16
2019-02-19T07:34:48.224Z,51.03
2019-02-19T07:35:57.213Z,50.79
2019-02-19T07:37:06.040Z,50.51
2019-02-19T07:38:14.546Z,50.28
2019-02-19T07:39:23.619Z,50.02
2019-02-19T07:40:32.108Z,49.68
2019-02-19T07:41:40.512Z,49.22
2019-02-19T07:42:49.118Z,48.97
2019-02-19T07:43:58.417Z,48.74
2019-02-19T07:45:11.683Z,48.38
2019-02-19T07:46:20.220Z,48.07
2019-02-19T07:47:28.766Z,47.72
2019-02-19T07:48:37.494Z,47.28
2019-02-19T07:49:46.884Z,46.72
2019-02-19T07:50:55.240Z,45.92
2019-02-19T07:52:03.507Z,45.08
2019-02-19T07:53:12.068Z,44.24
2019-02-19T07:54:21.214Z,43.56
2019-02-19T07:55:29.759Z,42.84
2019-02-19T07:56:38.549Z,41.84
2019-02-19T07:57:46.978Z,40.89
2019-02-19T07:58:55.772Z,39.52
2019-02-19T08:00:05.024Z,37.77
2019-02-19T08:01:13.895Z,36.03
2019-02-19T08:02:23.122Z,34.24
2019-02-19T08:03:31.400Z,32.49
2019-02-19T08:04:39.967Z,30.87
2019-02-19T08:05:49.067Z,29.53
2019-02-19T08:06:58.038Z,28.29
2019-02-19T08:08:08.133Z,26.89
2019-02-19T08:09:16.824Z,25.62
2019-02-19T08:10:25.737Z,24.60
2019-02-19T08:11:34.449Z,23.91
2019-02-19T08:12:43.570Z,22.52
2019-02-19T08:13:52.813Z,21.65
2019-02-19T08:15:01.789Z,20.96
2019-02-19T08:16:10.559Z,20.17
2019-02-19T08:17:19.372Z,18.87
2019-02-19T08:18:28.258Z,18.04
2019-02-19T08:19:37.346Z,17.90
2019-02-19T08:20:46.872Z,17.49
2019-02-19T08:21:55.394Z,16.04
2019-02-19T08:23:03.896Z,15.96
2019-02-19T08:24:12.145Z,16.23
2019-02-19T08:25:20.891Z,15.31
2019-02-19T08:26:29.725Z,14.65
2019-02-19T08:27:38.343Z,14.85
2019-02-19T08:28:46.474Z,14.35
2019-02-19T08:29:54.660Z,14.22
2019-02-19T08:31:03.202Z,13.99
2019-02-19T08:32:12.709Z,13.75
2019-02-19T08:33:21.885Z,13.57
2019-02-19T08:34:30.274Z,13.25
2019-02-19T08:35:39.113Z,13.62
2019-02-19T08:36:47.547Z,13.11
2019-02-19T08:37:55.830Z,12.97
2019-02-19T08:39:05.494Z,13.50
2019-02-19T08:40:13.850Z,12.90
2019-02-19T08:41:22.630Z,13.33
2019-02-19T08:42:31.057Z,13.63
2019-02-19T08:43:39.273Z,12.96
2019-02-19T08:44:48.501Z,13.31
2019-02-19T08:45:57.551Z,13.09
2019-02-19T08:47:05.713Z,13.11
2019-02-19T08:48:14.624Z,13.02
2019-02-19T08:49:23.551Z,12.66
2019-02-19T08:50:32.576Z,12.58
2019-02-19T08:51:41.370Z,12.83
2019-02-19T08:52:50.124Z,12.48
2019-02-19T08:53:58.481Z,12.57
2019-02-19T08:55:07.648Z,12.15
2019-02-19T08:56:16.133Z,12.11
2019-02-19T08:57:25.023Z,11.84
2019-02-19T08:58:33.321Z,11.63
2019-02-19T08:59:42.240Z,11.47
2019-02-19T09:00:51.371Z,11.58
2019-02-19T09:02:00.116Z,11.29
2019-02-19T09:03:08.492Z,11.02
2019-02-19T09:04:17.496Z,10.90
2019-02-19T09:05:25.792Z,10.96
2019-02-19T09:06:34.201Z,10.79
2019-02-19T09:07:42.764Z,10.36
2019-02-19T09:08:51.737Z,10.16
2019-02-19T09:10:00.317Z,10.02
2019-02-19T09:11:08.580Z,10.35
2019-02-19T09:12:17.075Z,9.98
2019-02-19T09:13:25.077Z,9.74
2019-02-19T09:14:33.274Z,10.20
2019-02-19T09:15:41.989Z,10.14
2019-02-19T09:16:50.589Z,9.85
2019-02-19T09:17:59.092Z,9.36
2019-02-19T09:19:07.823Z,9.43
2019-02-19T09:20:16.393Z,9.71
2019-02-19T09:21:24.723Z,9.85
2019-02-19T09:22:33.232Z,9.67
2019-02-19T09:23:42.389Z,9.70
2019-02-19T09:24:51.204Z,9.63
2019-02-19T09:26:00.037Z,9.21
2019-02-19T09:27:08.760Z,9.06
2019-02-19T09:28:17.188Z,9.28
2019-02-19T09:29:25.767Z,9.10
2019-02-19T09:30:34.107Z,8.93
2019-02-19T09:31:43.537Z,9.23
2019-02-19T09:32:52.116Z,8.94
2019-02-19T09:34:01.023Z,8.81
2019-02-19T09:35:10.692Z,8.74
2019-02-19T09:36:19.205Z,8.60
2019-02-19T09:37:27.610Z,8.24
2019-02-19T09:38:35.827Z,8.09
2019-02-19T09:39:44.392Z,8.09
2019-02-19T09:40:52.606Z,8.13
2019-02-19T09:42:01.283Z,8.14
2019-02-19T09:43:10.095Z,8.11
2019-02-19T09:44:18.720Z,7.93
2019-02-19T09:45:27.288Z,8.02
2019-02-19T09:46:35.758Z,8.09
2019-02-19T09:47:44.359Z,8.05
2019-02-19T09:48:53.221Z,7.40
2019-02-19T09:50:01.363Z,7.80
2019-02-19T09:51:10.081Z,8.26
2019-02-19T09:52:18.984Z,8.35
2019-02-19T09:53:27.614Z,8.71
2019-02-19T09:54:36.181Z,8.84
2019-02-19T09:55:44.257Z,8.78
2019-02-19T09:56:52.698Z,8.33
2019-02-19T09:58:01.346Z,8.61
2019-02-19T09:59:09.772Z,8.67
2019-02-19T10:00:18.308Z,8.57
2019-02-19T10:01:28.255Z,8.76
2019-02-19T10:02:36.556Z,8.79
2019-02-19T10:03:45.639Z,9.04
2019-02-19T10:04:54.217Z,8.96
2019-02-19T10:06:03.077Z,9.10
2019-02-19T10:07:11.695Z,9.13
2019-02-19T10:08:19.900Z,8.99
2019-02-19T10:09:28.097Z,8.82
2019-02-19T10:10:36.401Z,8.96
2019-02-19T10:11:45.653Z,9.00
2019-02-19T10:12:54.406Z,8.88
2019-02-19T10:14:02.803Z,8.88
2019-02-19T10:15:15.473Z,8.80
2019-02-19T10:16:24.105Z,8.68
2019-02-19T10:17:33.666Z,8.50
2019-02-19T10:18:42.880Z,8.35
2019-02-19T10:19:51.478Z,8.08
2019-02-19T10:20:59.827Z,8.30
2019-02-19T10:22:08.351Z,8.58
2019-02-19T10:23:16.918Z,8.79
2019-02-19T10:24:25.249Z,8.89
2019-02-19T10:25:33.973Z,8.87
2019-02-19T10:26:42.829Z,8.77
2019-02-19T10:27:50.965Z,8.47
2019-02-19T10:28:59.311Z,8.77
2019-02-19T10:30:12.023Z,9.38
2019-02-19T10:31:21.001Z,9.65
2019-02-19T10:32:29.414Z,9.74
2019-02-19T10:33:37.686Z,9.56
2019-02-19T10:34:45.714Z,9.53
2019-02-19T10:35:54.876Z,9.78
2019-02-19T10:37:03.635Z,9.77
2019-02-19T10:38:12.332Z,9.83
2019-02-19T10:39:21.352Z,9.83
2019-02-19T10:40:29.906Z,9.77
2019-02-19T10:41:38.211Z,9.75
2019-02-19T10:42:46.386Z,9.83
2019-02-19T10:43:54.891Z,9.94
2019-02-19T10:45:03.499Z,9.88
2019-02-19T10:46:12.189Z,9.73
2019-02-19T10:47:21.059Z,9.71
2019-02-19T10:48:29.294Z,9.87
2019-02-19T10:49:37.866Z,10.04
2019-02-19T10:50:46.246Z,10.33
2019-02-19T10:51:54.640Z,10.49
2019-02-19T10:53:03.086Z,10.49
2019-02-19T10:54:12.618Z,10.31
2019-02-19T10:55:20.867Z,10.14
2019-02-19T10:56:29.566Z,10.02
2019-02-19T10:57:38.021Z,9.88
2019-02-19T10:58:46.260Z,9.60
2019-02-19T10:59:54.673Z,9.23
2019-02-19T11:01:02.727Z,9.01
2019-02-19T11:02:11.418Z,9.15
2019-02-19T11:03:19.582Z,9.08
2019-02-19T11:04:27.995Z,9.04
2019-02-19T11:05:36.293Z,9.26
2019-02-19T11:06:44.533Z,9.51
2019-02-19T11:07:52.797Z,9.68
2019-02-19T11:09:01.208Z,9.76
2019-02-19T11:10:13.479Z,9.75
2019-02-19T11:11:21.904Z,9.65
2019-02-19T11:12:30.300Z,9.66
2019-02-19T11:13:38.536Z,9.70
2019-02-19T11:14:46.754Z,9.54
2019-02-19T11:15:55.310Z,9.22
2019-02-19T11:17:04.315Z,9.14
2019-02-19T11:18:12.776Z,9.10
2019-02-19T11:19:21.537Z,9.09
2019-02-19T11:20:30.117Z,9.20
2019-02-19T11:21:38.877Z,9.35
2019-02-19T11:22:47.089Z,9.44
2019-02-19T11:23:55.288Z,9.42
2019-02-19T11:25:03.284Z,9.28
2019-02-19T11:26:11.675Z,9.27
2019-02-19T11:27:20.325Z,9.58
2019-02-19T11:28:29.593Z,9.61
2019-02-19T11:29:38.293Z,9.86
2019-02-19T11:30:46.557Z,10.05
2019-02-19T11:31:55.060Z,10.05
2019-02-19T11:33:03.937Z,10.02
2019-02-19T11:34:12.737Z,9.80
2019-02-19T11:35:21.783Z,9.74
2019-02-19T11:36:30.760Z,9.79
2019-02-19T11:37:39.431Z,9.85
2019-02-19T11:38:48.197Z,9.86
2019-02-19T11:39:59.129Z,9.73
2019-02-19T11:41:08.213Z,9.63
2019-02-19T11:42:16.508Z,9.54
2019-02-19T11:43:25.366Z,9.74
2019-02-19T11:44:34.180Z,9.96
2019-02-19T11:45:42.584Z,10.15
2019-02-19T11:46:50.650Z,10.34
2019-02-19T11:48:00.374Z,10.37
2019-02-19T11:49:08.569Z,10.29
2019-02-19T11:50:17.193Z,10.10
2019-02-19T11:51:25.549Z,10.04
2019-02-19T11:52:34.463Z,9.90
2019-02-19T11:53:42.807Z,9.67
2019-02-19T11:54:51.317Z,9.44
2019-02-19T11:56:00.632Z,9.21
2019-02-19T11:57:09.324Z,9.05
2019-02-19T11:58:17.379Z,9.09
2019-02-19T11:59:25.954Z,9.29
2019-02-19T12:00:36.054Z,9.35
2019-02-19T12:01:44.598Z,9.31
2019-02-19T12:02:52.802Z,9.42
2019-02-19T12:04:01.530Z,9.59
2019-02-19T12:05:09.940Z,9.64
2019-02-19T12:06:18.655Z,9.94
2019-02-19T12:07:27.213Z,10.07
2019-02-19T12:08:39.125Z,10.16
2019-02-19T12:09:45.357Z,10.52
2019-02-19T12:10:53.852Z,10.84
2019-02-19T12:12:02.514Z,11.02
2019-02-19T12:13:10.840Z,11.26
2019-02-19T12:14:19.721Z,11.37
2019-02-19T12:15:34.982Z,11.38
2019-02-19T12:16:38.258Z,11.37
2019-02-19T12:17:46.278Z,11.22
2019-02-19T12:18:55.075Z,11.00
2019-02-19T12:20:03.485Z,10.78
2019-02-19T12:21:11.888Z,10.63
2019-02-19T12:22:20.236Z,10.72
2019-02-19T12:23:28.490Z,10.90
2019-02-19T12:24:36.626Z,10.90
2019-02-19T12:25:45.599Z,11.03
2019-02-19T12:26:54.163Z,11.29
2019-02-19T12:28:02.877Z,11.53
2019-02-19T12:29:11.141Z,11.48
2019-02-19T12:30:20.846Z,11.60
2019-02-19T12:31:29.482Z,11.83
2019-02-19T12:32:38.084Z,11.92
2019-02-19T12:33:46.492Z,11.92
2019-02-19T12:34:54.928Z,12.02
2019-02-19T12:36:03.254Z,12.34
2019-02-19T12:37:11.642Z,12.70
2019-02-19T12:38:20.244Z,13.14
2019-02-19T12:39:29.206Z,13.47
2019-02-19T12:40:38.086Z,13.63
2019-02-19T12:41:46.708Z,13.89
2019-02-19T12:42:55.149Z,13.91
2019-02-19T12:44:03.398Z,14.00
2019-02-19T12:45:15.239Z,13.86
2019-02-19T12:46:23.569Z,13.66
2019-02-19T12:47:31.783Z,13.46
2019-02-19T12:48:40.411Z,13.49
2019-02-19T12:49:49.102Z,13.35
2019-02-19T12:50:57.362Z,13.24
2019-02-19T12:52:05.555Z,13.26
2019-02-19T12:53:14.446Z,13.38
2019-02-19T12:54:22.411Z,13.51
2019-02-19T12:55:30.661Z,13.60
2019-02-19T12:56:39.021Z,13.69
2019-02-19T12:57:47.334Z,13.83
2019-02-19T12:58:55.312Z,13.94
2019-02-19T13:00:03.415Z,14.17
2019-02-19T13:01:11.937Z,14.44
2019-02-19T13:02:21.031Z,14.74
2019-02-19T13:03:29.132Z,15.06
2019-02-19T13:04:37.615Z,15.21
2019-02-19T13:05:46.252Z,15.36
2019-02-19T13:06:54.586Z,15.49
2019-02-19T13:08:03.298Z,15.70
2019-02-19T13:09:12.128Z,15.87
2019-02-19T13:10:20.566Z,15.87
2019-02-19T13:11:28.648Z,15.82
2019-02-19T13:12:36.986Z,15.68
2019-02-19T13:13:45.428Z,15.64
2019-02-19T13:14:53.746Z,15.66
2019-02-19T13:16:02.471Z,15.78
2019-02-19T13:17:11.112Z,16.05
2019-02-19T13:18:19.119Z,16.37
2019-02-19T13:19:27.717Z,16.46
2019-02-19T13:20:36.229Z,16.60
2019-02-19T13:21:46.389Z,16.69
2019-02-19T13:22:54.726Z,16.74
2019-02-19T13:24:03.379Z,16.71
2019-02-19T13:25:13.050Z,16.77
2019-02-19T13:26:21.666Z,16.91
2019-02-19T13:27:30.050Z,17.12
2019-02-19T13:28:38.352Z,17.48
2019-02-19T13:29:47.290Z,17.77
2019-02-19T13:30:55.792Z,18.17
2019-02-19T13:32:04.180Z,18.53
2019-02-19T13:33:12.663Z,18.82
2019-02-19T13:34:20.881Z,19.04
2019-02-19T13:35:29.405Z,19.29
2019-02-19T13:36:37.714Z,19.38
2019-02-19T13:37:45.996Z,19.42
2019-02-19T13:38:54.470Z,19.40
2019-02-19T13:40:03.000Z,19.37
2019-02-19T13:41:11.483Z,19.29
2019-02-19T13:42:19.736Z,19.34
2019-02-19T13:43:28.752Z,19.30
2019-02-19T13:44:37.619Z,19.28
2019-02-19T13:45:46.158Z,19.57
2019-02-19T13:46:54.674Z,20.15
2019-02-19T13:48:05.935Z,20.40
2019-02-19T13:49:13.169Z,20.32
2019-02-19T13:50:34.721Z,20.23
2019-02-19T13:51:43.337Z,20.37
2019-02-19T13:52:53.650Z,20.77
2019-02-19T13:54:05.131Z,21.04
2019-02-19T13:55:14.895Z,21.17
2019-02-19T13:56:23.160Z,21.19
2019-02-19T13:57:31.620Z,21.19
2019-02-19T13:58:40.214Z,21.26
2019-02-19T13:59:48.522Z,21.22
2019-02-19T14:00:56.952Z,21.34
2019-02-19T14:02:04.985Z,21.36
2019-02-19T14:03:13.406Z,21.45
2019-02-19T14:04:21.834Z,21.50
2019-02-19T14:05:30.447Z,21.68
2019-02-19T14:06:39.193Z,21.99
2019-02-19T14:07:47.706Z,22.19
2019-02-19T14:08:56.159Z,22.50
2019-02-19T14:10:08.425Z,22.67
2019-02-19T14:11:16.465Z,23.16
2019-02-19T14:12:24.741Z,23.44
2019-02-19T14:13:32.953Z,23.77
2019-02-19T14:14:45.628Z,23.80
2019-02-19T14:16:07.704Z,23.88
2019-02-19T14:17:16.194Z,23.79
2019-02-19T14:18:25.763Z,24.00
2019-02-19T14:19:44.636Z,23.82
2019-02-19T14:20:52.862Z,23.65
2019-02-19T14:22:02.907Z,23.48
2019-02-19T14:23:18.843Z,23.33
2019-02-19T14:24:28.963Z,23.15
2019-02-19T14:25:55.597Z,23.28
2019-02-19T14:27:11.761Z,23.15
2019-02-19T14:28:37.523Z,23.72
2019-02-19T14:29:51.049Z,23.86
2019-02-19T14:31:01.492Z,23.89
2019-02-19T14:32:23.860Z,24.20
2019-02-19T14:33:34.416Z,24.43
2019-02-19T14:35:00.460Z,24.72
2019-02-19T14:36:10.360Z,24.86
2019-02-19T14:37:29.225Z,24.98
2019-02-19T14:38:47.619Z,25.28
2019-02-19T14:39:55.743Z,25.68
2019-02-19T14:41:06.231Z,26.14
2019-02-19T14:42:31.803Z,26.54
2019-02-19T14:43:57.879Z,26.97
2019-02-19T14:45:10.753Z,27.76
2019-02-19T14:46:36.963Z,28.27
2019-02-19T14:47:48.105Z,28.89
2019-02-19T14:49:00.814Z,29.59
2019-02-19T14:50:16.954Z,30.19
2019-02-19T14:51:35.503Z,30.72
2019-02-19T14:53:01.361Z,30.91
2019-02-19T14:54:12.488Z,31.44
2019-02-19T14:55:35.712Z,31.84